Time;durP1;ratioP1;P1;durP2;ratioP2;P2;SDS_P1;SDS_P2;PMS_P1;PMS_P2;Temp;Humidity;BMP_temperature;BMP_pressure;BME280_temperature;BME280_humidity;BME280_pressure;Samples;Min_cycle;Max_cycle;Signal;HPM_P1;HPM_P2
2023/10/11 00:01:58;;;;;;;0.82;0.65;;;15.60;99.90;;;;;;5067063;28;20039;-71
2023/10/11 00:04:23;;;;;;;2.03;1.40;;;15.60;99.90;;;;;;5113184;27;20418;-71
2023/10/11 00:06:50;;;;;;;0.43;0.43;;;15.60;99.90;;;;;;5115100;27;20048;-71
2023/10/11 00:09:16;;;;;;;1.33;0.98;;;15.60;99.90;;;;;;5081468;28;20043;-72
2023/10/11 00:11:42;;;;;;;2.63;0.73;;;15.60;99.90;;;;;;5083151;28;20834;-72
2023/10/11 00:14:08;;;;;;;0.45;0.30;;;15.60;99.90;;;;;;5081189;28;20042;-71
2023/10/11 00:16:35;;;;;;;1.77;0.77;;;15.50;99.90;;;;;;5086242;28;20046;-71
2023/10/11 00:19:01;;;;;;;2.90;0.80;;;15.60;99.90;;;;;;5080477;28;20474;-72
2023/10/11 00:21:40;;;;;;;10.98;2.50;;;15.50;99.90;;;;;;5079619;28;20548;-71
2023/10/11 00:24:07;;;;;;;2.05;1.73;;;15.50;99.90;;;;;;5113420;27;20478;-71
2023/10/11 00:26:34;;;;;;;0.82;0.82;;;15.50;99.90;;;;;;5079281;28;20051;-72
2023/10/11 00:29:00;;;;;;;3.15;2.05;;;15.60;99.90;;;;;;5068880;28;20027;-72
2023/10/11 00:31:26;;;;;;;1.42;1.33;;;15.50;99.90;;;;;;5076689;28;20061;-71
2023/10/11 00:33:55;;;;;;;1.20;1.20;;;15.50;99.90;;;;;;5080612;28;20298;-72
2023/10/11 00:36:29;;;;;;;1.88;0.73;;;15.50;99.90;;;;;;5077600;28;20465;-72
2023/10/11 00:38:56;;;;;;;1.23;0.80;;;15.60;99.90;;;;;;5065318;28;20078;-72
2023/10/11 00:41:25;;;;;;;3.53;1.30;;;15.60;99.90;;;;;;5114854;27;20043;-71
2023/10/11 00:43:52;;;;;;;0.77;0.77;;;15.50;99.90;;;;;;5111667;27;20121;-72
2023/10/11 00:46:27;;;;;;;2.13;1.33;;;15.60;99.90;;;;;;5090730;28;20058;-71
2023/10/11 00:51:49;;;;;;;1.27;0.80;;;15.60;99.90;;;;;;5102834;28;20430;-72
2023/10/11 00:54:16;;;;;;;1.75;1.65;;;15.60;99.90;;;;;;5115357;28;20339;-71
2023/10/11 00:56:43;;;;;;;1.75;0.77;;;15.60;99.90;;;;;;5087492;28;20047;-72
2023/10/11 00:59:14;;;;;;;2.90;1.38;;;15.70;99.90;;;;;;5112724;28;20054;-71
2023/10/11 01:01:44;;;;;;;3.08;1.48;;;15.70;99.90;;;;;;5088353;28;20052;-72
2023/10/11 01:04:10;;;;;;;1.70;1.60;;;15.60;99.90;;;;;;5114032;28;20096;-71
2023/10/11 01:06:36;;;;;;;1.58;1.48;;;15.70;99.90;;;;;;5109090;28;20051;-71
2023/10/11 01:09:17;;;;;;;2.67;1.02;;;15.70;99.90;;;;;;5088384;28;20039;-72
2023/10/11 01:11:45;;;;;;;0.93;0.93;;;15.70;99.90;;;;;;5113088;28;20261;-72
2023/10/11 01:14:11;;;;;;;3.75;1.00;;;15.80;99.90;;;;;;5088561;28;20044;-72
2023/10/11 01:16:37;;;;;;;1.60;1.50;;;15.80;99.90;;;;;;5075809;27;20527;-71
2023/10/11 01:19:11;;;;;;;1.15;1.13;;;15.70;99.90;;;;;;5093190;28;20470;-70
2023/10/11 01:21:41;;;;;;;1.98;1.20;;;15.80;99.90;;;;;;5115358;27;20040;-72
2023/10/11 01:24:08;;;;;;;1.15;1.05;;;15.80;99.90;;;;;;5115201;27;20036;-71
2023/10/11 01:26:34;;;;;;;2.83;1.55;;;15.80;99.90;;;;;;5093460;27;20160;-72
2023/10/11 01:29:01;;;;;;;0.60;0.55;;;15.80;99.90;;;;;;5091086;27;20489;-70
2023/10/11 01:31:32;;;;;;;8.07;2.33;;;15.80;99.90;;;;;;5117595;27;20027;-72
2023/10/11 01:33:58;;;;;;;2.25;2.05;;;15.90;99.90;;;;;;5115976;27;20084;-71
2023/10/11 01:36:26;;;;;;;1.98;1.10;;;15.90;99.90;;;;;;5093232;28;20466;-71
2023/10/11 01:38:52;;;;;;;7.70;1.95;;;15.90;99.90;;;;;;5111369;27;20108;-72
2023/10/11 01:41:27;;;;;;;3.10;1.05;;;15.90;99.90;;;;;;5085351;28;20044;-72
2023/10/11 01:43:55;;;;;;;1.63;1.10;;;15.90;99.90;;;;;;5120590;27;20061;-70
2023/10/11 01:46:26;;;;;;;3.72;1.48;;;15.90;99.90;;;;;;5109497;27;20134;-71
2023/10/11 01:48:53;;;;;;;0.80;0.80;;;15.80;99.90;;;;;;5111919;27;20039;-72
2023/10/11 01:51:28;;;;;;;5.22;2.05;;;15.80;99.90;;;;;;5089965;28;20039;-72
2023/10/11 01:54:00;;;;;;;1.27;0.93;;;15.80;99.90;;;;;;5116739;27;20375;-71
2023/10/11 01:56:26;;;;;;;1.17;0.65;;;15.80;99.90;;;;;;5092436;27;20027;-71
2023/10/11 01:59:01;;;;;;;3.50;1.65;;;15.80;99.90;;;;;;5088695;27;20047;-70
2023/10/11 02:01:30;;;;;;;1.35;0.98;;;15.70;99.90;;;;;;5092539;27;20039;-71
2023/10/11 02:04:03;;;;;;;0.55;0.55;;;15.70;99.90;;;;;;5092254;27;20035;-71
2023/10/11 02:06:32;;;;;;;1.27;0.90;;;15.70;99.90;;;;;;5086181;28;20040;-71
2023/10/11 02:08:58;;;;;;;1.90;1.55;;;15.70;99.90;;;;;;5117744;27;20047;-72
2023/10/11 02:11:29;;;;;;;5.10;1.05;;;15.70;99.90;;;;;;5085046;27;20042;-70
2023/10/11 02:13:57;;;;;;;3.55;1.83;;;15.60;99.90;;;;;;5090706;27;20066;-71
2023/10/11 02:16:28;;;;;;;0.63;0.63;;;15.60;99.90;;;;;;5088644;27;20123;-71
2023/10/11 02:18:58;;;;;;;1.77;0.98;;;15.60;99.90;;;;;;5122417;27;20048;-71
2023/10/11 02:21:24;;;;;;;6.20;0.93;;;15.60;99.90;;;;;;5085491;27;20498;-70
2023/10/11 02:23:50;;;;;;;8.10;2.65;;;15.50;99.90;;;;;;5096734;27;20568;-71
2023/10/11 02:26:16;;;;;;;2.03;1.10;;;15.60;99.90;;;;;;5072860;28;20047;-71
2023/10/11 02:28:46;;;;;;;3.22;1.20;;;15.50;99.90;;;;;;5114973;27;20040;-72
2023/10/11 02:31:19;;;;;;;1.58;0.70;;;15.50;99.90;;;;;;5091157;28;20052;-72
2023/10/11 02:33:45;;;;;;;1.25;0.85;;;15.50;99.90;;;;;;5092848;28;20024;-72
2023/10/11 02:36:17;;;;;;;4.80;1.42;;;15.50;99.90;;;;;;5090243;27;20041;-71
2023/10/11 02:38:54;;;;;;;15.40;2.92;;;15.50;99.90;;;;;;5117881;27;20035;-71
2023/10/11 02:41:26;;;;;;;1.08;0.98;;;15.40;99.90;;;;;;5108165;27;20502;-72
2023/10/11 02:43:52;;;;;;;3.33;2.65;;;15.50;99.90;;;;;;5103830;27;20438;-71
2023/10/11 02:46:23;;;;;;;2.33;2.17;;;15.50;99.90;;;;;;5085133;28;20083;-71
2023/10/11 02:48:52;;;;;;;2.67;2.47;;;15.50;99.90;;;;;;5089027;28;20058;-71
2023/10/11 02:51:24;;;;;;;2.58;2.00;;;15.40;99.90;;;;;;5120586;27;20040;-71
2023/10/11 02:53:53;;;;;;;2.35;1.67;;;15.50;99.90;;;;;;5088009;28;20042;-71
2023/10/11 02:56:19;;;;;;;2.40;2.10;;;15.50;99.90;;;;;;5092489;28;20035;-71
2023/10/11 02:58:45;;;;;;;0.80;0.80;;;15.50;99.90;;;;;;5111370;27;20097;-70
2023/10/11 03:01:22;;;;;;;2.53;1.48;;;15.40;99.90;;;;;;5091466;28;20051;-71
2023/10/11 03:03:48;;;;;;;1.15;1.08;;;15.40;99.90;;;;;;5117648;27;20067;-71
2023/10/11 03:06:14;;;;;;;1.60;1.48;;;15.40;99.90;;;;;;5085750;28;20067;-70
2023/10/11 03:08:44;;;;;;;0.90;0.90;;;15.40;99.90;;;;;;5092481;27;20039;-70
2023/10/11 03:11:15;;;;;;;1.23;1.13;;;15.40;99.90;;;;;;5088007;28;20073;-72
2023/10/11 03:13:42;;;;;;;0.95;0.90;;;15.40;99.90;;;;;;5083256;28;20118;-72
2023/10/11 03:16:17;;;;;;;1.48;1.38;;;15.30;99.90;;;;;;5089920;28;20081;-71
2023/10/11 03:18:46;;;;;;;9.65;2.55;;;15.30;99.90;;;;;;5087035;27;20037;-71
2023/10/11 03:21:19;;;;;;;2.90;2.58;;;15.30;99.90;;;;;;5113481;27;20042;-70
2023/10/11 03:23:49;;;;;;;4.20;1.17;;;15.30;99.90;;;;;;5116236;27;20123;-72
2023/10/11 03:26:38;;;;;;;2.20;0.88;;;15.30;99.90;;;;;;5089577;27;20118;-73
2023/10/11 03:29:04;;;;;;;1.88;1.23;;;15.30;99.90;;;;;;5120036;27;20481;-70
2023/10/11 03:31:45;;;;;;;1.10;0.70;;;15.20;99.90;;;;;;5089355;27;20455;-71
2023/10/11 03:34:11;;;;;;;0.55;0.52;;;15.30;99.90;;;;;;5090566;28;20035;-72
2023/10/11 03:36:51;;;;;;;3.17;1.25;;;15.30;99.90;;;;;;5069991;27;20157;-72
2023/10/11 03:39:56;;;;;;;6.55;1.92;;;15.20;99.90;;;;;;5117905;27;20036;-70
2023/10/11 03:42:17;;;;;;;2.90;1.65;;;15.30;99.90;;;;;;5084354;27;20050;-71
2023/10/11 03:44:47;;;;;;;1.17;0.85;;;15.30;99.90;;;;;;5115173;27;20134;-71
2023/10/11 03:47:14;;;;;;;5.05;1.95;;;15.30;99.90;;;;;;5089923;28;20195;-72
2023/10/11 03:52:25;;;;;;;4.18;1.38;;;15.40;99.90;;;;;;5086373;28;20493;-72
2023/10/11 03:55:03;;;;;;;8.05;1.10;;;15.40;99.90;;;;;;5070039;28;20070;-70
2023/10/11 03:57:34;;;;;;;1.13;1.13;;;15.40;99.90;;;;;;5087549;28;20085;-74
2023/10/11 04:00:00;;;;;;;7.40;1.45;;;15.50;99.90;;;;;;5115072;27;20075;-70
2023/10/11 04:02:26;;;;;;;1.75;1.65;;;15.50;99.90;;;;;;5085697;27;20051;-71
2023/10/11 04:04:52;;;;;;;0.47;0.43;;;15.60;99.90;;;;;;5072557;28;20097;-71
2023/10/11 04:07:21;;;;;;;7.95;1.45;;;15.60;99.90;;;;;;5086663;28;20118;-72
2023/10/11 04:09:47;;;;;;;1.35;1.25;;;15.60;99.90;;;;;;5083504;28;20112;-72
2023/10/11 04:12:13;;;;;;;2.22;1.85;;;15.60;99.90;;;;;;5087709;28;20043;-71
2023/10/11 04:14:44;;;;;;;1.67;1.35;;;15.60;99.90;;;;;;5086296;27;20035;-70
2023/10/11 04:19:49;;;;;;;2.10;1.00;;;15.70;99.90;;;;;;5085639;28;20421;-70
2023/10/11 04:22:23;;;;;;;6.30;2.03;;;15.70;99.90;;;;;;5083017;28;20519;-71
2023/10/11 04:24:55;;;;;;;1.35;1.17;;;15.70;99.90;;;;;;5085912;28;20484;-71
2023/10/11 04:29:52;;;;;;;7.75;2.47;;;15.70;99.90;;;;;;5087981;28;20048;-71
2023/10/11 04:35:10;;;;;;;1.25;1.15;;;15.70;99.90;;;;;;5088769;28;20031;-72
2023/10/11 04:37:44;;;;;;;2.00;1.58;;;15.70;99.90;;;;;;5071300;28;20058;-71
2023/10/11 04:45:45;;;;;;;1.38;0.75;;;15.70;99.90;;;;;;5089527;28;20047;-73
2023/10/11 04:48:15;;;;;;;2.85;1.30;;;15.70;99.90;;;;;;5088841;28;20036;-70
2023/10/11 04:50:50;;;;;;;1.77;1.67;;;15.70;99.90;;;;;;5091406;28;20173;-70
2023/10/11 04:53:18;;;;;;;4.70;1.58;;;15.70;99.90;;;;;;5083344;28;20038;-71
2023/10/11 04:56:51;;;;;;;5.85;1.48;;;15.70;99.90;;;;;;5110917;28;20047;-71
2023/10/11 04:58:52;;;;;;;3.83;1.75;;;15.80;99.90;;;;;;5085694;28;20420;-71
2023/10/11 05:01:24;;;;;;;1.35;0.68;;;15.80;99.90;;;;;;5113928;28;20075;-70
2023/10/11 05:03:59;;;;;;;1.63;1.52;;;15.80;99.90;;;;;;5110260;28;20068;-70
2023/10/11 05:06:31;;;;;;;4.18;1.38;;;15.80;99.90;;;;;;5087409;28;20043;-71
2023/10/11 05:09:12;;;;;;;1.63;0.75;;;15.80;99.90;;;;;;5085620;28;20050;-71
2023/10/11 05:11:43;;;;;;;15.25;1.63;;;15.80;99.90;;;;;;5112972;28;20097;-73
2023/10/11 05:16:59;;;;;;;0.82;0.80;;;15.80;99.90;;;;;;5089697;28;20126;-72
2023/10/11 05:19:26;;;;;;;1.15;0.85;;;15.80;99.90;;;;;;5087095;28;20039;-71
2023/10/11 05:21:54;;;;;;;3.28;1.95;;;15.80;99.90;;;;;;5087132;28;20043;-69
2023/10/11 05:24:44;;;;;;;4.82;2.25;;;15.80;99.90;;;;;;5082351;28;20044;-70
2023/10/11 05:32:41;;;;;;;1.75;1.65;;;15.80;99.90;;;;;;5087232;28;20131;-70
2023/10/11 05:51:20;;;;;;;2.25;1.27;;;15.60;99.90;;;;;;5082089;28;20078;-71
2023/10/11 05:53:49;;;;;;;1.52;1.42;;;15.60;99.90;;;;;;5083920;28;20083;-69
2023/10/11 05:56:20;;;;;;;4.75;1.65;;;15.60;99.90;;;;;;5082193;28;20442;-70
2023/10/11 05:58:51;;;;;;;2.27;1.23;;;15.50;99.90;;;;;;5112002;28;20384;-71
2023/10/11 06:01:22;;;;;;;2.75;2.45;;;15.50;99.90;;;;;;5085665;28;20303;-71
2023/10/11 06:03:51;;;;;;;1.45;1.30;;;15.50;99.90;;;;;;5109456;27;20123;-71
2023/10/11 06:06:24;;;;;;;2.47;1.63;;;15.50;99.90;;;;;;5094016;28;20596;-71
2023/10/11 06:08:57;;;;;;;7.03;2.88;;;15.50;99.90;;;;;;5122013;27;20032;-70
2023/10/11 06:11:29;;;;;;;2.85;2.08;;;15.50;99.90;;;;;;5089420;28;20428;-70
2023/10/11 06:13:55;;;;;;;;;;;15.60;99.90;;;;;;5114462;27;20389;-71
2023/10/11 06:16:24;;;;;;;2.70;1.35;;;15.50;99.90;;;;;;5086509;28;20436;-72
2023/10/11 06:18:56;;;;;;;2.05;1.67;;;15.50;99.90;;;;;;5109517;28;20074;-73
2023/10/11 06:21:32;;;;;;;1.17;0.60;;;15.60;99.90;;;;;;5092158;28;20130;-70
2023/10/11 06:24:04;;;;;;;1.30;1.10;;;15.60;99.90;;;;;;5091389;28;20040;-72
2023/10/11 06:26:52;;;;;;;5.38;2.28;;;15.50;99.90;;;;;;5118531;27;20044;-71
2023/10/11 06:29:29;;;;;;;1.35;1.25;;;15.60;99.90;;;;;;5091680;27;20056;-71
2023/10/11 06:31:55;;;;;;;2.53;1.13;;;15.60;99.90;;;;;;5090339;28;20053;-70
2023/10/11 06:34:25;;;;;;;3.30;2.05;;;15.70;99.90;;;;;;5092076;28;20035;-72
2023/10/11 06:36:53;;;;;;;1.52;1.17;;;15.70;99.90;;;;;;5086299;28;20036;-71
2023/10/11 06:44:57;;;;;;;1.90;0.85;;;15.80;99.90;;;;;;5088845;28;20427;-72
2023/10/11 06:47:24;;;;;;;1.83;1.60;;;15.70;99.90;;;;;;5087988;27;20092;-69
2023/10/11 06:49:54;;;;;;;2.67;1.77;;;15.80;99.90;;;;;;5083589;28;20047;-70
2023/10/11 06:52:31;;;;;;;1.02;0.63;;;15.80;99.90;;;;;;5087700;28;20603;-71
2023/10/11 06:55:22;;;;;;;3.85;2.67;;;15.80;99.90;;;;;;5086273;27;20120;-71
2023/10/11 06:57:45;;;;;;;1.35;1.00;;;15.90;99.90;;;;;;5090741;28;20424;-70
2023/10/11 07:00:23;;;;;;;2.50;1.17;;;15.90;99.90;;;;;;5087004;28;20043;-71
2023/10/11 07:02:52;;;;;;;7.28;3.53;;;15.90;99.90;;;;;;5124485;27;20043;-70
2023/10/11 07:05:20;;;;;;;2.33;1.92;;;15.90;99.90;;;;;;5087802;28;20051;-70
2023/10/11 07:07:49;;;;;;;3.75;1.48;;;16.00;99.90;;;;;;5074757;28;20036;-71
2023/10/11 07:10:28;;;;;;;6.57;1.48;;;16.00;99.90;;;;;;5084326;28;20039;-69
2023/10/11 07:13:22;;;;;;;1.30;0.68;;;16.00;99.90;;;;;;5123392;27;20059;-71
2023/10/11 07:15:49;;;;;;;0.88;0.85;;;16.00;99.90;;;;;;5092237;28;20036;-71
2023/10/11 07:18:25;;;;;;;2.25;1.67;;;16.00;99.90;;;;;;5086415;28;20096;-70
2023/10/11 07:20:58;;;;;;;2.30;2.08;;;16.00;99.90;;;;;;5078596;28;20394;-71
2023/10/11 07:23:24;;;;;;;;;;;16.00;99.90;;;;;;5091526;28;20119;-70
2023/10/11 07:25:59;;;;;;;2.92;1.27;;;16.00;99.90;;;;;;5092492;28;20015;-71
2023/10/11 07:28:37;;;;;;;5.03;1.55;;;16.00;99.90;;;;;;5087825;28;20035;-71
2023/10/11 07:31:13;;;;;;;1.63;1.20;;;16.10;99.90;;;;;;5126411;27;20043;-70
2023/10/11 07:33:38;;;;;;;5.00;1.70;;;16.10;99.90;;;;;;5084843;28;20038;-71
2023/10/11 07:36:11;;;;;;;1.00;0.85;;;16.10;99.90;;;;;;5080665;28;20075;-70
2023/10/11 07:38:43;;;;;;;2.60;2.38;;;16.10;99.90;;;;;;5089137;28;20051;-72
2023/10/11 07:41:17;;;;;;;4.03;2.28;;;16.20;99.90;;;;;;5093043;28;20043;-69
2023/10/11 07:43:46;;;;;;;4.03;2.72;;;16.20;99.90;;;;;;5074197;28;20044;-72
2023/10/11 07:46:12;;;;;;;1.65;1.15;;;16.20;99.90;;;;;;5073836;28;20185;-72
2023/10/11 07:48:39;;;;;;;4.68;1.60;;;16.20;99.90;;;;;;5078070;27;20035;-72
2023/10/11 07:51:09;;;;;;;6.03;2.25;;;16.30;99.90;;;;;;5094858;28;20044;-71
2023/10/11 07:53:41;;;;;;;1.88;1.70;;;16.30;99.90;;;;;;5090599;28;20043;-72
2023/10/11 07:56:07;;;;;;;3.17;1.00;;;16.40;99.90;;;;;;5087604;28;20047;-69
2023/10/11 07:58:32;;;;;;;8.68;1.35;;;16.40;99.90;;;;;;5084395;28;20294;-69
2023/10/11 08:01:03;;;;;;;12.88;1.95;;;16.40;99.90;;;;;;5086235;28;20050;-69
2023/10/11 08:03:34;;;;;;;6.97;1.27;;;16.40;99.90;;;;;;5084955;28;20035;-68
2023/10/11 08:06:08;;;;;;;4.47;2.50;;;16.40;99.90;;;;;;5086057;28;20047;-70
2023/10/11 08:08:37;;;;;;;2.60;2.40;;;16.50;99.90;;;;;;5091263;28;20127;-68
2023/10/11 08:11:14;;;;;;;2.03;1.60;;;16.50;99.90;;;;;;5098302;28;20044;-67
2023/10/11 08:13:40;;;;;;;3.63;2.40;;;16.50;99.90;;;;;;5086264;28;20119;-70
2023/10/11 08:16:13;;;;;;;3.50;1.27;;;16.50;99.90;;;;;;5090189;28;20134;-68
2023/10/11 08:18:39;;;;;;;2.85;1.35;;;16.50;99.90;;;;;;5077084;28;20032;-68
2023/10/11 08:21:05;;;;;;;2.53;1.92;;;16.60;99.90;;;;;;5094908;27;20091;-69
2023/10/11 08:23:31;;;;;;;4.75;1.08;;;16.60;99.90;;;;;;5092569;28;20409;-70
2023/10/11 08:25:59;;;;;;;3.28;1.88;;;16.60;99.90;;;;;;5091375;28;20031;-69
2023/10/11 08:28:28;;;;;;;3.65;1.73;;;16.70;99.90;;;;;;5120985;27;20490;-68
2023/10/11 08:30:57;;;;;;;3.60;1.67;;;16.70;99.90;;;;;;5125731;27;20115;-68
2023/10/11 08:33:30;;;;;;;5.38;2.67;;;16.70;99.90;;;;;;5093370;28;20501;-68
2023/10/11 08:35:56;;;;;;;2.45;1.77;;;16.70;99.90;;;;;;5091859;28;20526;-68
2023/10/11 08:38:25;;;;;;;2.92;2.50;;;16.70;99.90;;;;;;5087491;28;20159;-68
2023/10/11 08:40:59;;;;;;;4.63;3.03;;;16.70;99.90;;;;;;5075260;28;20088;-69
2023/10/11 08:43:31;;;;;;;11.77;3.13;;;16.70;99.90;;;;;;5086680;28;20063;-68
2023/10/11 08:46:05;;;;;;;16.88;3.35;;;16.80;99.90;;;;;;5090418;28;20471;-69
2023/10/11 08:48:38;;;;;;;1.45;1.35;;;16.80;99.90;;;;;;5086872;28;20297;-68
2023/10/11 08:51:10;;;;;;;6.43;1.13;;;16.80;99.90;;;;;;5084959;28;20111;-68
2023/10/11 08:53:44;;;;;;;6.03;2.33;;;16.70;99.90;;;;;;5090259;28;20036;-67
2023/10/11 08:56:14;;;;;;;4.28;1.63;;;16.70;99.90;;;;;;5088819;28;20079;-68
2023/10/11 08:58:41;;;;;;;1.98;1.85;;;16.80;99.90;;;;;;5123360;28;20100;-69
2023/10/11 09:01:07;;;;;;;1.73;1.52;;;16.80;99.90;;;;;;5089870;28;20036;-68
2023/10/11 09:03:39;;;;;;;2.80;2.45;;;16.80;99.90;;;;;;5124407;28;20031;-67
2023/10/11 09:06:05;;;;;;;;;;;16.80;99.90;;;;;;5071260;28;20038;-68
2023/10/11 09:08:32;;;;;;;3.05;2.08;;;16.90;99.90;;;;;;5081178;28;19920;-69
2023/10/11 09:11:13;;;;;;;3.35;1.52;;;16.90;99.90;;;;;;5092003;28;20509;-68
2023/10/11 09:13:39;;;;;;;4.13;1.65;;;16.90;99.90;;;;;;5088490;28;20110;-68
2023/10/11 09:16:14;;;;;;;1.95;1.77;;;17.00;99.90;;;;;;5089554;28;20442;-69
2023/10/11 09:19:06;;;;;;;3.35;2.53;;;17.00;99.90;;;;;;5088412;28;20518;-68
2023/10/11 09:21:35;;;;;;;1.45;1.35;;;17.00;99.90;;;;;;5091575;28;20065;-67
2023/10/11 09:24:03;;;;;;;7.93;3.30;;;17.00;99.90;;;;;;5122171;28;20044;-69
2023/10/11 09:26:34;;;;;;;1.88;1.75;;;17.00;99.90;;;;;;5091262;28;20039;-68
2023/10/11 09:29:04;;;;;;;2.23;2.13;;;17.00;99.90;;;;;;5118174;28;20073;-67
2023/10/11 09:31:34;;;;;;;5.05;2.78;;;17.00;99.90;;;;;;5106206;28;20647;-69
2023/10/11 09:34:01;;;;;;;2.80;1.25;;;17.00;99.90;;;;;;5110698;27;20040;-68
2023/10/11 09:36:28;;;;;;;2.10;1.58;;;17.00;99.90;;;;;;5086236;28;20043;-67
2023/10/11 09:38:55;;;;;;;1.77;1.67;;;17.10;99.90;;;;;;5087521;28;20042;-68
2023/10/11 09:41:25;;;;;;;1.70;1.17;;;17.10;99.90;;;;;;5084016;28;20116;-69
2023/10/11 09:43:55;;;;;;;3.55;2.38;;;17.10;99.90;;;;;;5085799;28;20525;-69
2023/10/11 09:46:23;;;;;;;4.07;2.05;;;17.10;99.90;;;;;;5118748;27;20043;-68
2023/10/11 09:48:49;;;;;;;2.30;1.80;;;17.10;99.90;;;;;;5090596;28;20413;-68
2023/10/11 09:51:16;;;;;;;1.50;1.23;;;17.10;99.90;;;;;;5084445;28;20035;-71
2023/10/11 09:53:49;;;;;;;11.48;2.33;;;17.20;99.90;;;;;;5088132;28;20153;-68
2023/10/11 09:56:45;;;;;;;2.03;0.43;;;17.20;99.90;;;;;;5088918;28;20800;-70
2023/10/11 09:59:22;;;;;;;4.68;1.85;;;17.20;99.90;;;;;;5087053;28;20061;-68
2023/10/11 10:02:04;;;;;;;1.75;1.63;;;17.20;99.90;;;;;;5086904;28;20043;-67
2023/10/11 10:04:51;;;;;;;;;;;17.30;99.90;;;;;;5105464;28;20443;-69
2023/10/11 10:09:53;;;;;;;1.05;0.88;;;17.60;99.90;;;;;;5087607;28;20041;-70
2023/10/11 10:12:22;;;;;;;1.38;1.30;;;17.80;99.90;;;;;;5117351;27;20391;-68
2023/10/11 10:15:00;;;;;;;0.25;0.25;;;17.90;99.90;;;;;;5089866;28;20130;-67
2023/10/11 10:17:26;;;;;;;0.65;0.65;;;17.90;99.90;;;;;;5087278;28;20504;-68
2023/10/11 10:19:52;;;;;;;0.60;0.60;;;17.90;99.90;;;;;;5120809;27;20090;-67
2023/10/11 10:22:31;;;;;;;3.35;1.27;;;17.90;99.90;;;;;;5085597;28;20047;-68
2023/10/11 10:25:19;;;;;;;0.85;0.85;;;18.00;99.90;;;;;;5088286;28;20055;-68
2023/10/11 10:27:46;;;;;;;1.65;0.60;;;18.00;99.90;;;;;;5079996;28;20047;-66
2023/10/11 10:30:16;;;;;;;0.50;0.50;;;18.10;99.90;;;;;;5087077;28;20043;-69
2023/10/11 10:33:21;;;;;;;0.35;0.35;;;18.20;99.90;;;;;;5085371;28;20300;-67
2023/10/11 10:35:48;;;;;;;0.77;0.77;;;18.20;99.90;;;;;;5083482;28;20043;-69
2023/10/11 10:38:14;;;;;;;1.25;1.15;;;18.20;99.90;;;;;;5089538;28;20048;-69
2023/10/11 10:40:45;;;;;;;0.90;0.28;;;18.20;99.90;;;;;;5085203;28;20385;-68
2023/10/11 10:43:23;;;;;;;0.15;0.15;;;18.30;99.90;;;;;;5082798;28;20047;-69
2023/10/11 10:45:53;;;;;;;0.50;0.50;;;18.30;99.90;;;;;;5084039;28;20055;-70
2023/10/11 10:48:20;;;;;;;1.17;0.52;;;18.40;99.90;;;;;;5082224;28;20052;-69
2023/10/11 10:51:04;;;;;;;1.75;0.95;;;18.60;99.90;;;;;;5085054;28;20035;-68
2023/10/11 10:53:42;;;;;;;0.38;0.38;;;18.80;99.90;;;;;;5085873;28;20417;-67
2023/10/11 10:56:25;;;;;;;1.10;1.00;;;19.00;99.90;;;;;;5086442;28;20039;-68
2023/10/11 10:59:08;;;;;;;4.20;0.55;;;19.10;99.90;;;;;;5085685;28;20614;-67
2023/10/11 11:01:34;;;;;;;2.75;1.73;;;19.10;99.90;;;;;;5097767;28;20036;-68
2023/10/11 11:04:07;;;;;;;3.10;2.38;;;19.10;99.90;;;;;;5084353;28;20166;-70
2023/10/11 11:06:46;;;;;;;;;;;19.20;99.90;;;;;;5116219;27;20039;-68
2023/10/11 11:09:15;;;;;;;16.17;1.15;;;19.20;99.90;;;;;;5117598;27;19920;-68
2023/10/11 11:11:46;;;;;;;1.05;0.82;;;19.10;99.90;;;;;;5101599;27;20441;-68
2023/10/11 11:14:14;;;;;;;9.40;1.67;;;19.10;99.90;;;;;;5086868;28;20044;-68
2023/10/11 11:16:43;;;;;;;1.63;0.63;;;19.00;99.90;;;;;;5083845;28;20382;-68
2023/10/11 11:19:16;;;;;;;1.55;0.60;;;19.00;99.90;;;;;;5084203;28;20073;-67
2023/10/11 11:21:44;;;;;;;5.50;1.40;;;19.20;99.90;;;;;;5121767;27;20055;-67
2023/10/11 11:24:18;;;;;;;0.60;0.30;;;19.30;99.90;;;;;;5115293;27;20039;-66
2023/10/11 11:26:45;;;;;;;0.95;0.52;;;19.40;99.90;;;;;;5089429;28;20036;-69
2023/10/11 11:29:16;;;;;;;0.25;0.22;;;19.30;99.90;;;;;;5120994;27;20074;-68
2023/10/11 11:31:51;;;;;;;0.40;0.40;;;19.20;99.90;;;;;;5078955;27;20067;-67
2023/10/11 11:34:27;;;;;;;0.38;0.38;;;19.10;99.90;;;;;;5108830;27;20043;-67
2023/10/11 11:37:00;;;;;;;0.50;0.50;;;19.10;99.90;;;;;;5086229;27;20222;-70
2023/10/11 11:39:36;;;;;;;3.67;1.58;;;19.10;99.90;;;;;;5118660;27;20389;-67
2023/10/11 11:42:19;;;;;;;1.15;0.50;;;19.00;99.90;;;;;;5092117;28;20501;-69
2023/10/11 11:44:46;;;;;;;0.60;0.60;;;19.10;99.90;;;;;;5086945;28;20036;-67
2023/10/11 11:47:11;;;;;;;0.35;0.35;;;19.10;99.90;;;;;;5089982;28;20040;-67
2023/10/11 11:49:37;;;;;;;0.60;0.60;;;19.20;99.90;;;;;;5109487;28;20170;-69
2023/10/11 11:52:03;;;;;;;2.15;1.38;;;19.20;99.90;;;;;;5086116;28;20032;-67
2023/10/11 11:54:28;;;;;;;0.57;0.57;;;19.20;99.90;;;;;;5112490;27;20036;-69
2023/10/11 11:56:55;;;;;;;1.10;1.00;;;19.30;99.90;;;;;;5111450;27;20047;-67
2023/10/11 11:59:22;;;;;;;1.95;0.90;;;19.30;99.90;;;;;;5117206;27;20375;-67
2023/10/11 12:01:52;;;;;;;1.58;0.98;;;19.40;99.90;;;;;;5084985;28;20181;-68
2023/10/11 12:04:29;;;;;;;0.90;0.50;;;19.50;99.90;;;;;;5078522;27;20043;-68
2023/10/11 12:06:59;;;;;;;1.85;0.60;;;19.60;99.90;;;;;;5083938;27;20040;-68
2023/10/11 12:09:31;;;;;;;0.65;0.65;;;19.70;99.90;;;;;;5083161;28;20100;-67
2023/10/11 12:12:04;;;;;;;;;;;19.70;99.90;;;;;;5079198;28;20044;-68
2023/10/11 12:14:40;;;;;;;0.60;0.60;;;19.60;99.90;;;;;;5105808;28;19920;-67
2023/10/11 12:17:11;;;;;;;0.43;0.43;;;19.60;99.90;;;;;;5102628;28;20387;-67
2023/10/11 12:19:43;;;;;;;4.47;1.27;;;19.70;99.90;;;;;;5122924;27;20032;-68
2023/10/11 12:22:13;;;;;;;1.20;1.10;;;19.80;99.90;;;;;;5122798;27;20126;-68
2023/10/11 12:24:44;;;;;;;0.50;0.50;;;19.90;99.90;;;;;;5082226;28;20092;-68
2023/10/11 12:27:13;;;;;;;2.25;1.15;;;20.00;99.90;;;;;;5119296;27;20155;-68
2023/10/11 12:29:39;;;;;;;1.90;1.02;;;20.00;99.90;;;;;;5091865;28;20035;-67
2023/10/11 12:32:04;;;;;;;0.70;0.70;;;20.00;99.90;;;;;;5086076;28;20067;-69
2023/10/11 12:34:32;;;;;;;1.65;0.75;;;20.00;99.90;;;;;;5092484;28;20078;-68
2023/10/11 12:36:57;;;;;;;1.88;0.73;;;20.00;99.90;;;;;;5119296;27;20050;-68
2023/10/11 12:39:25;;;;;;;1.00;0.60;;;20.10;99.90;;;;;;5071934;28;20048;-68
2023/10/11 12:41:52;;;;;;;0.68;0.68;;;20.20;99.90;;;;;;5083769;28;20095;-68
2023/10/11 12:44:18;;;;;;;1.17;0.75;;;20.30;99.90;;;;;;5076391;28;20048;-68
2023/10/11 12:46:51;;;;;;;0.20;0.20;;;20.30;99.90;;;;;;5074446;28;20040;-68
2023/10/11 12:49:18;;;;;;;0.40;0.20;;;20.40;99.90;;;;;;5080610;28;20036;-68
2023/10/11 12:51:45;;;;;;;0.85;0.55;;;20.40;99.90;;;;;;5118109;28;20035;-69
2023/10/11 12:54:15;;;;;;;0.30;0.30;;;20.30;99.90;;;;;;5089398;28;20096;-69
2023/10/11 12:56:45;;;;;;;0.35;0.35;;;20.30;99.90;;;;;;5088412;28;20039;-68
2023/10/11 12:59:13;;;;;;;0.32;0.32;;;20.10;99.90;;;;;;5117111;28;20046;-68
2023/10/11 13:01:50;;;;;;;0.30;0.30;;;20.10;99.90;;;;;;5108836;28;20044;-68
2023/10/11 13:07:13;;;;;;;0.85;0.25;;;20.10;99.90;;;;;;5073650;28;20101;-68
2023/10/11 13:09:40;;;;;;;0.38;0.38;;;20.00;99.90;;;;;;5088476;28;20045;-69
2023/10/11 13:12:06;;;;;;;2.65;2.15;;;19.80;99.90;;;;;;5126253;27;20109;-69
2023/10/11 13:14:33;;;;;;;0.70;0.47;;;19.80;99.90;;;;;;5088725;28;20495;-67
2023/10/11 13:17:00;;;;;;;1.55;0.88;;;19.70;99.90;;;;;;5078245;28;20032;-68
2023/10/11 13:19:26;;;;;;;1.10;0.60;;;19.70;99.90;;;;;;5093538;28;20040;-67
2023/10/11 13:21:54;;;;;;;1.58;0.40;;;19.70;99.90;;;;;;5127070;27;20047;-66
2023/10/11 13:24:24;;;;;;;1.17;1.08;;;19.70;99.90;;;;;;5087711;28;20122;-71
2023/10/11 13:26:55;;;;;;;1.30;0.50;;;19.70;99.90;;;;;;5081497;28;20421;-67
2023/10/11 13:29:22;;;;;;;1.10;1.10;;;19.70;99.90;;;;;;5091359;28;20482;-68
2023/10/11 13:31:53;;;;;;;12.30;1.45;;;19.80;99.90;;;;;;5081983;28;20047;-69
2023/10/11 13:34:19;;;;;;;1.55;1.48;;;19.80;99.90;;;;;;5090635;28;20044;-67
2023/10/11 13:36:44;;;;;;;1.13;0.60;;;19.80;99.90;;;;;;5125076;27;20513;-67
2023/10/11 13:39:25;;;;;;;0.30;0.30;;;19.80;99.90;;;;;;5088921;28;20043;-69
2023/10/11 13:41:55;;;;;;;2.13;0.57;;;19.80;99.90;;;;;;5084267;28;20093;-69
2023/10/11 13:44:22;;;;;;;1.33;0.85;;;19.70;99.90;;;;;;5089394;28;20374;-68
2023/10/11 13:46:53;;;;;;;1.08;1.02;;;19.60;99.90;;;;;;5093583;28;20136;-68
2023/10/11 13:49:26;;;;;;;1.90;1.58;;;19.70;99.90;;;;;;5116588;27;20466;-67
2023/10/11 13:51:59;;;;;;;1.17;1.08;;;19.60;99.90;;;;;;5083808;28;20055;-68
2023/10/11 13:54:32;;;;;;;0.52;0.50;;;19.60;99.90;;;;;;5091537;28;20036;-68
2023/10/11 13:57:07;;;;;;;0.55;0.52;;;19.60;99.90;;;;;;5082943;28;20169;-67
2023/10/11 13:59:37;;;;;;;0.38;0.38;;;19.60;99.90;;;;;;5103509;28;20035;-67
2023/10/11 14:04:56;;;;;;;0.20;0.20;;;19.60;99.90;;;;;;5125171;27;20051;-67